createdAt,value
2022-12-07T00:01:41.805Z,0.97
2022-12-07T00:04:11.467Z,0.87
2022-12-07T00:06:43.717Z,0.88
2022-12-07T00:09:16.669Z,0.88
2022-12-07T00:11:43.627Z,0.92
2022-12-07T00:14:16.147Z,0.94
2022-12-07T00:16:43.932Z,0.94
2022-12-07T00:19:12.150Z,0.95
2022-12-07T00:21:39.241Z,0.93
2022-12-07T00:24:06.555Z,0.96
2022-12-07T00:26:38.770Z,0.94
2022-12-07T00:29:10.592Z,0.94
2022-12-07T00:31:40.019Z,0.87
2022-12-07T00:34:08.753Z,0.91
2022-12-07T00:36:35.359Z,0.91
2022-12-07T00:39:03.273Z,0.89
2022-12-07T00:41:31.181Z,0.85
2022-12-07T00:43:58.519Z,0.82
2022-12-07T00:46:25.887Z,0.83
2022-12-07T00:48:53.564Z,0.87
2022-12-07T00:51:23.059Z,0.84
2022-12-07T00:53:50.013Z,0.82
2022-12-07T00:56:28.339Z,0.84
2022-12-07T00:59:02.767Z,0.82
2022-12-07T01:01:35.965Z,0.79
2022-12-07T01:04:02.746Z,0.82
2022-12-07T01:06:30.432Z,0.78
2022-12-07T01:08:57.562Z,0.75
2022-12-07T01:11:27.278Z,0.76
2022-12-07T01:13:55.730Z,0.67
2022-12-07T01:16:24.172Z,0.69
2022-12-07T01:18:53.180Z,0.73
2022-12-07T01:21:29.293Z,0.77
2022-12-07T01:23:58.215Z,0.77
2022-12-07T01:26:26.410Z,0.78
2022-12-07T01:28:56.124Z,0.74
2022-12-07T01:31:25.223Z,0.76
2022-12-07T01:33:54.470Z,0.77
2022-12-07T01:36:27.692Z,0.74
2022-12-07T01:39:00.047Z,0.72
2022-12-07T01:41:29.684Z,0.73
2022-12-07T01:44:21.686Z,0.69
2022-12-07T01:46:49.628Z,0.69
2022-12-07T01:49:44.951Z,0.74
2022-12-07T01:52:32.450Z,0.76
2022-12-07T01:55:03.343Z,0.74
2022-12-07T01:57:34.126Z,0.78
2022-12-07T02:00:01.726Z,0.81
2022-12-07T02:02:34.223Z,0.78
2022-12-07T02:05:03.088Z,0.83
2022-12-07T02:07:30.802Z,0.84
2022-12-07T02:09:57.512Z,0.82
2022-12-07T02:12:25.546Z,0.85
2022-12-07T02:14:52.861Z,0.83
2022-12-07T02:17:31.114Z,0.85
2022-12-07T02:20:19.010Z,0.90
2022-12-07T02:23:33.922Z,0.94
2022-12-07T02:26:47.055Z,0.93
2022-12-07T02:29:19.889Z,0.94
2022-12-07T02:32:16.885Z,0.87
2022-12-07T02:34:51.863Z,0.84
2022-12-07T02:37:41.044Z,0.88
2022-12-07T02:40:14.899Z,0.91
2022-12-07T02:42:47.233Z,0.91
2022-12-07T02:45:16.636Z,0.94
2022-12-07T02:47:44.897Z,0.96
2022-12-07T02:50:11.986Z,0.97
2022-12-07T02:52:38.673Z,0.97
2022-12-07T02:55:06.029Z,0.95
2022-12-07T02:57:49.602Z,0.92
2022-12-07T03:00:18.716Z,0.94
2022-12-07T03:02:55.097Z,0.97
2022-12-07T03:05:27.667Z,0.99
2022-12-07T03:08:23.657Z,1.01
2022-12-07T03:10:57.748Z,1.01
2022-12-07T03:13:30.757Z,1.01
2022-12-07T03:16:06.693Z,1.04
2022-12-07T03:18:40.824Z,0.93
2022-12-07T03:21:15.073Z,0.96
2022-12-07T03:23:45.231Z,0.96
2022-12-07T03:26:15.931Z,0.95
2022-12-07T03:28:48.449Z,0.95
2022-12-07T03:31:32.017Z,0.89
2022-12-07T03:34:12.141Z,0.87
2022-12-07T03:36:55.442Z,0.87
2022-12-07T03:39:35.464Z,0.84
2022-12-07T03:42:05.260Z,0.82
2022-12-07T03:44:33.146Z,0.82
2022-12-07T03:47:08.127Z,0.83
2022-12-07T03:49:37.621Z,0.78
2022-12-07T03:52:18.185Z,0.73
2022-12-07T03:55:06.326Z,0.73
2022-12-07T03:57:35.448Z,0.77
2022-12-07T04:00:05.303Z,0.79
2022-12-07T04:02:33.108Z,0.79
2022-12-07T04:04:59.883Z,0.80
2022-12-07T04:07:26.528Z,0.80
2022-12-07T04:09:55.785Z,0.81
2022-12-07T04:12:23.275Z,0.84
2022-12-07T04:14:49.833Z,0.87
2022-12-07T04:17:16.595Z,0.89
2022-12-07T04:19:43.199Z,0.91
2022-12-07T04:22:09.984Z,0.85
2022-12-07T04:24:36.606Z,0.88
2022-12-07T04:27:03.979Z,0.90
2022-12-07T04:29:30.585Z,0.90
2022-12-07T04:31:57.165Z,0.89
2022-12-07T04:34:23.769Z,0.92
2022-12-07T04:36:50.502Z,0.96
2022-12-07T04:39:31.158Z,0.98
2022-12-07T04:41:58.292Z,1.01
2022-12-07T04:44:25.966Z,0.97
2022-12-07T04:46:53.392Z,0.98
2022-12-07T04:49:20.903Z,1.01
2022-12-07T04:51:48.261Z,1.01
2022-12-07T04:54:16.250Z,1.02
2022-12-07T04:56:43.551Z,0.96
2022-12-07T04:59:11.729Z,0.87
2022-12-07T05:01:38.474Z,0.78
2022-12-07T05:04:05.337Z,0.87
2022-12-07T05:06:31.900Z,0.82
2022-12-07T05:08:58.452Z,0.88
2022-12-07T05:11:40.141Z,0.89
2022-12-07T05:14:19.121Z,0.83
2022-12-07T05:16:47.741Z,0.84
2022-12-07T05:19:14.390Z,0.92
2022-12-07T05:21:41.282Z,0.95
2022-12-07T05:24:10.869Z,0.93
2022-12-07T05:26:37.448Z,0.96
2022-12-07T05:29:04.711Z,0.99
2022-12-07T05:31:31.283Z,1.00
2022-12-07T05:33:57.837Z,1.04
2022-12-07T05:36:24.528Z,1.05
2022-12-07T05:38:51.248Z,1.09
2022-12-07T05:41:38.484Z,1.10
2022-12-07T05:44:06.284Z,1.06
2022-12-07T05:46:33.332Z,1.07
2022-12-07T05:48:59.965Z,1.10
2022-12-07T05:51:26.547Z,1.07
2022-12-07T05:53:53.161Z,1.10
2022-12-07T05:56:20.042Z,1.12
2022-12-07T05:59:05.208Z,1.12
2022-12-07T06:01:31.918Z,1.10
2022-12-07T06:03:58.527Z,1.09
2022-12-07T06:06:25.243Z,1.10
2022-12-07T06:08:52.142Z,1.14
2022-12-07T06:11:37.258Z,1.18
2022-12-07T06:14:03.846Z,1.21
2022-12-07T06:16:30.454Z,1.25
2022-12-07T06:18:57.276Z,1.26
2022-12-07T06:21:23.974Z,1.26
2022-12-07T06:23:50.531Z,1.23
2022-12-07T06:26:17.115Z,1.13
2022-12-07T06:28:43.695Z,1.17
2022-12-07T06:31:13.776Z,1.17
2022-12-07T06:33:41.684Z,1.21
2022-12-07T06:36:08.940Z,1.19
2022-12-07T06:38:35.733Z,1.24
2022-12-07T06:41:02.283Z,1.01
2022-12-07T06:43:29.024Z,1.12
2022-12-07T06:45:55.645Z,1.15
2022-12-07T06:48:22.276Z,1.11
2022-12-07T06:50:54.307Z,1.10
2022-12-07T06:53:21.598Z,1.11
2022-12-07T06:55:48.172Z,1.16
2022-12-07T06:58:14.852Z,1.18
2022-12-07T07:00:41.662Z,1.16
2022-12-07T07:03:08.242Z,1.23
2022-12-07T07:05:34.901Z,1.19
2022-12-07T07:10:48.354Z,1.13
2022-12-07T07:13:14.945Z,1.19
2022-12-07T07:15:41.522Z,1.19
2022-12-07T07:18:08.303Z,1.20
2022-12-07T07:20:34.986Z,1.21
2022-12-07T07:23:01.598Z,1.20
2022-12-07T07:25:28.267Z,1.24
2022-12-07T07:27:54.943Z,1.21
2022-12-07T07:30:21.706Z,1.23
2022-12-07T07:32:48.258Z,1.21
2022-12-07T07:35:15.162Z,1.13
2022-12-07T07:37:42.110Z,1.19
2022-12-07T07:40:10.275Z,1.09
2022-12-07T07:42:37.148Z,1.11
2022-12-07T07:45:04.090Z,1.10
2022-12-07T07:47:30.700Z,1.16
2022-12-07T07:49:58.136Z,1.16
2022-12-07T07:52:24.729Z,1.16
2022-12-07T07:54:51.425Z,1.20
2022-12-07T07:57:18.514Z,1.24
2022-12-07T07:59:45.039Z,1.25
2022-12-07T08:02:17.018Z,1.26
2022-12-07T08:04:43.720Z,1.28
2022-12-07T08:07:11.421Z,1.35
2022-12-07T08:09:38.647Z,1.38
2022-12-07T08:12:05.703Z,1.38
2022-12-07T08:14:32.826Z,1.39
2022-12-07T08:16:59.432Z,1.41
2022-12-07T08:19:26.175Z,1.39
2022-12-07T08:21:52.925Z,1.44
2022-12-07T08:24:19.542Z,1.48
2022-12-07T08:26:46.048Z,1.50
2022-12-07T08:29:12.614Z,1.55
2022-12-07T08:31:39.244Z,1.51
2022-12-07T08:34:05.783Z,1.47
2022-12-07T08:36:32.321Z,1.36
2022-12-07T08:39:30.451Z,1.39
2022-12-07T08:41:45.456Z,1.45
2022-12-07T08:44:11.965Z,1.50
2022-12-07T08:46:43.657Z,1.53
2022-12-07T08:49:14.980Z,1.61
2022-12-07T08:51:42.352Z,1.59
2022-12-07T08:54:12.061Z,1.54
2022-12-07T08:56:38.990Z,1.51
2022-12-07T08:59:07.061Z,1.60
2022-12-07T09:01:34.072Z,1.77
2022-12-07T09:04:00.771Z,1.80
2022-12-07T09:06:27.688Z,1.87
2022-12-07T09:08:58.860Z,1.77
2022-12-07T09:11:28.681Z,1.91
2022-12-07T09:13:56.098Z,2.05
2022-12-07T09:16:23.090Z,2.04
2022-12-07T09:18:49.799Z,2.03
2022-12-07T09:21:16.332Z,2.06
2022-12-07T09:23:43.839Z,2.15
2022-12-07T09:26:11.176Z,2.10
2022-12-07T09:28:38.618Z,2.04
2022-12-07T09:34:00.547Z,1.99
2022-12-07T09:36:28.224Z,2.14
2022-12-07T09:38:54.936Z,2.20
2022-12-07T09:41:23.729Z,2.25
2022-12-07T09:43:51.098Z,2.32
2022-12-07T09:46:20.481Z,2.33
2022-12-07T09:48:49.694Z,2.37
2022-12-07T09:51:25.939Z,2.48
2022-12-07T09:53:55.137Z,2.47
2022-12-07T09:56:23.724Z,2.49
2022-12-07T09:58:52.719Z,2.47
2022-12-07T10:01:21.235Z,2.56
2022-12-07T10:03:53.999Z,2.62
2022-12-07T10:06:20.531Z,2.51
2022-12-07T10:08:47.791Z,2.59
2022-12-07T10:11:15.902Z,2.47
2022-12-07T10:13:49.966Z,2.46
2022-12-07T10:16:41.423Z,2.38
2022-12-07T10:19:26.289Z,2.49
2022-12-07T10:22:03.636Z,2.52
2022-12-07T10:24:30.583Z,2.46
2022-12-07T10:26:58.250Z,2.56
2022-12-07T10:29:37.168Z,2.56
2022-12-07T10:32:34.932Z,2.50
2022-12-07T10:35:26.653Z,2.58
2022-12-07T10:37:55.049Z,2.61
2022-12-07T10:40:24.503Z,2.60
2022-12-07T10:43:03.112Z,2.62
2022-12-07T10:45:29.887Z,2.58
2022-12-07T10:48:05.494Z,2.63
2022-12-07T10:50:59.919Z,2.71
2022-12-07T10:53:41.531Z,2.69
2022-12-07T10:56:11.093Z,2.76
2022-12-07T10:59:08.828Z,2.80
2022-12-07T11:01:40.954Z,2.84
2022-12-07T11:04:31.679Z,2.89
2022-12-07T11:07:35.512Z,2.92
2022-12-07T11:10:45.723Z,2.93
2022-12-07T11:13:28.343Z,2.99
2022-12-07T11:16:01.418Z,3.07
2022-12-07T11:18:37.646Z,3.05
2022-12-07T11:21:27.966Z,3.16
2022-12-07T11:24:48.676Z,3.21
2022-12-07T11:27:25.291Z,3.29
2022-12-07T11:30:23.662Z,3.38
2022-12-07T11:33:15.991Z,3.34
2022-12-07T11:36:17.276Z,3.20
2022-12-07T11:39:01.383Z,3.19
2022-12-07T11:41:36.630Z,3.22
2022-12-07T11:44:07.168Z,3.17
2022-12-07T11:47:15.017Z,3.15
2022-12-07T11:50:20.467Z,3.22
2022-12-07T11:52:56.088Z,3.23
2022-12-07T11:55:44.484Z,3.31
2022-12-07T11:58:42.299Z,3.28
2022-12-07T12:01:14.927Z,3.36
2022-12-07T12:03:53.502Z,3.44
2022-12-07T12:06:21.539Z,3.39
2022-12-07T12:15:18.939Z,3.24
2022-12-07T12:17:51.498Z,3.22
2022-12-07T12:20:39.847Z,3.22
2022-12-07T12:23:36.716Z,3.20
2022-12-07T12:26:06.204Z,3.16
2022-12-07T12:28:50.611Z,3.24
2022-12-07T12:31:23.252Z,3.22
2022-12-07T12:33:54.834Z,3.24
2022-12-07T12:36:43.695Z,3.20
2022-12-07T12:39:15.356Z,3.18
2022-12-07T12:41:47.740Z,3.15
2022-12-07T12:44:20.203Z,3.07
2022-12-07T12:46:54.218Z,3.12
2022-12-07T12:49:20.697Z,3.15
2022-12-07T12:51:57.707Z,3.19
2022-12-07T12:54:29.364Z,3.31
2022-12-07T12:57:19.696Z,3.34
2022-12-07T12:59:51.980Z,3.34
2022-12-07T13:02:24.523Z,3.30
2022-12-07T13:05:03.640Z,3.31
2022-12-07T13:07:45.569Z,3.28
2022-12-07T13:10:24.341Z,3.20
2022-12-07T13:13:11.911Z,3.20
2022-12-07T13:15:38.745Z,3.12
2022-12-07T13:18:25.979Z,3.11
2022-12-07T13:21:07.635Z,3.10
2022-12-07T13:23:46.293Z,3.09
2022-12-07T13:26:36.364Z,3.12
2022-12-07T13:29:16.177Z,3.15
2022-12-07T13:31:42.703Z,3.15
2022-12-07T13:34:39.217Z,3.16
2022-12-07T13:37:19.125Z,3.10
2022-12-07T13:39:51.978Z,3.08
2022-12-07T13:42:28.830Z,3.10
2022-12-07T13:44:57.203Z,3.05
2022-12-07T13:47:30.003Z,3.08
2022-12-07T13:49:57.808Z,3.06
2022-12-07T13:52:30.053Z,3.02
2022-12-07T13:54:59.938Z,3.03
2022-12-07T13:57:29.682Z,2.91
2022-12-07T13:59:56.944Z,2.90
2022-12-07T14:02:35.040Z,2.93
2022-12-07T14:05:11.824Z,2.95
2022-12-07T14:07:54.835Z,2.90
2022-12-07T14:10:50.756Z,2.79
2022-12-07T14:13:36.642Z,2.78
2022-12-07T14:16:06.932Z,2.76
2022-12-07T14:18:36.484Z,2.80
2022-12-07T14:21:15.009Z,2.85
2022-12-07T14:23:41.945Z,2.90
2022-12-07T14:26:15.559Z,2.94
2022-12-07T14:28:44.053Z,2.87
2022-12-07T14:31:23.680Z,2.88
2022-12-07T14:33:51.751Z,2.87
2022-12-07T14:36:18.268Z,2.92
2022-12-07T14:38:44.844Z,2.80
2022-12-07T14:41:35.640Z,2.87
2022-12-07T14:44:22.401Z,2.93
2022-12-07T14:46:50.780Z,2.96
2022-12-07T14:49:33.809Z,2.97
2022-12-07T14:54:47.696Z,2.87
2022-12-07T14:57:14.364Z,2.88
2022-12-07T14:59:45.059Z,2.89
2022-12-07T15:02:13.673Z,2.83
2022-12-07T15:04:40.517Z,2.81
2022-12-07T15:07:14.592Z,2.80
2022-12-07T15:09:41.188Z,2.80
2022-12-07T15:12:07.896Z,2.76
2022-12-07T15:14:34.527Z,2.76
2022-12-07T15:17:10.526Z,2.72
2022-12-07T15:19:39.655Z,2.64
2022-12-07T15:22:06.202Z,2.51
2022-12-07T15:24:34.289Z,2.47
2022-12-07T15:27:00.839Z,2.44
2022-12-07T15:29:27.459Z,2.39
2022-12-07T15:31:56.565Z,2.32
2022-12-07T15:34:27.652Z,2.23
2022-12-07T15:36:54.327Z,2.23
2022-12-07T15:39:21.017Z,2.21
2022-12-07T15:41:47.627Z,2.19
2022-12-07T15:44:33.176Z,2.14
2022-12-07T15:47:00.051Z,2.08
2022-12-07T15:49:27.248Z,1.99
2022-12-07T15:51:53.946Z,1.96
2022-12-07T15:54:26.911Z,1.93
2022-12-07T15:56:54.285Z,1.85
2022-12-07T15:59:20.889Z,1.85
2022-12-07T16:01:47.580Z,1.84
2022-12-07T16:04:14.622Z,1.84
2022-12-07T16:06:41.452Z,1.84
2022-12-07T16:09:08.534Z,1.83
2022-12-07T16:11:35.184Z,1.84
2022-12-07T16:14:01.753Z,1.84
2022-12-07T16:16:28.745Z,1.83
2022-12-07T16:18:55.747Z,1.82
2022-12-07T16:21:25.343Z,1.82
2022-12-07T16:23:52.572Z,1.83
2022-12-07T16:26:21.754Z,1.84
2022-12-07T16:28:52.941Z,1.80
2022-12-07T16:31:21.124Z,1.81
2022-12-07T16:33:48.420Z,1.81
2022-12-07T16:36:33.970Z,1.75
2022-12-07T16:39:06.362Z,1.79
2022-12-07T16:41:33.285Z,1.79
2022-12-07T16:44:10.386Z,1.77
2022-12-07T16:46:38.009Z,1.74
2022-12-07T16:49:05.418Z,1.73
2022-12-07T16:51:32.624Z,1.64
2022-12-07T16:53:59.796Z,1.64
2022-12-07T16:56:27.721Z,1.62
2022-12-07T16:58:54.472Z,1.61
2022-12-07T17:01:23.687Z,1.60
2022-12-07T17:03:50.917Z,1.63
2022-12-07T17:06:25.608Z,1.65
2022-12-07T17:08:53.000Z,1.67
2022-12-07T17:11:31.702Z,1.59
2022-12-07T17:14:16.803Z,1.55
2022-12-07T17:16:43.471Z,1.59
2022-12-07T17:19:12.576Z,1.59
2022-12-07T17:21:39.678Z,1.46
2022-12-07T17:24:09.715Z,1.48
2022-12-07T17:26:37.322Z,1.49
2022-12-07T17:29:06.020Z,1.45
2022-12-07T17:31:33.567Z,1.51
2022-12-07T17:34:00.735Z,1.52
2022-12-07T17:36:29.538Z,1.58
2022-12-07T17:38:56.649Z,1.58
2022-12-07T17:41:48.554Z,1.53
2022-12-07T17:44:18.083Z,1.55
2022-12-07T17:46:45.881Z,1.52
2022-12-07T17:49:12.744Z,1.56
2022-12-07T17:51:57.956Z,1.50
2022-12-07T17:54:24.624Z,1.47
2022-12-07T17:56:51.206Z,1.48
2022-12-07T17:59:18.145Z,1.48
2022-12-07T18:01:45.871Z,1.45
2022-12-07T18:04:12.757Z,1.42
2022-12-07T18:06:39.609Z,1.39
2022-12-07T18:09:07.442Z,1.31
2022-12-07T18:11:34.401Z,1.32
2022-12-07T18:14:00.984Z,1.35
2022-12-07T18:16:29.706Z,1.35
2022-12-07T18:19:00.223Z,1.41
2022-12-07T18:21:29.809Z,1.44
2022-12-07T18:23:59.200Z,1.44
2022-12-07T18:26:26.466Z,1.43
2022-12-07T18:28:53.802Z,1.39
2022-12-07T18:31:20.583Z,1.35
2022-12-07T18:33:48.343Z,1.36
2022-12-07T18:36:16.594Z,1.37
2022-12-07T18:38:44.449Z,1.42
2022-12-07T18:41:13.516Z,1.35
2022-12-07T18:43:40.653Z,1.39
2022-12-07T18:46:12.249Z,1.39
2022-12-07T18:48:39.224Z,1.42
2022-12-07T18:51:07.029Z,1.48
2022-12-07T18:53:34.537Z,1.49
2022-12-07T18:56:06.809Z,1.49
2022-12-07T18:58:33.835Z,1.45
2022-12-07T19:01:00.433Z,1.40
2022-12-07T19:03:33.108Z,1.34
2022-12-07T19:06:06.180Z,1.34
2022-12-07T19:08:34.238Z,1.42
2022-12-07T19:11:23.718Z,1.41
2022-12-07T19:13:51.191Z,1.43
2022-12-07T19:16:17.810Z,1.32
2022-12-07T19:18:50.806Z,1.36
2022-12-07T19:21:18.913Z,1.26
2022-12-07T19:23:45.461Z,1.23
2022-12-07T19:26:12.323Z,1.21
2022-12-07T19:28:38.984Z,1.24
2022-12-07T19:31:07.097Z,1.34
2022-12-07T19:33:33.871Z,1.40
2022-12-07T19:36:00.647Z,1.36
2022-12-07T19:38:27.067Z,1.47
2022-12-07T19:40:53.591Z,1.40
2022-12-07T19:43:20.140Z,1.31
2022-12-07T19:45:47.364Z,1.14
2022-12-07T19:48:13.915Z,1.18
2022-12-07T19:50:40.492Z,1.25
2022-12-07T19:53:07.094Z,1.29
2022-12-07T19:55:38.655Z,1.32
2022-12-07T19:58:05.222Z,1.32
2022-12-07T20:00:31.820Z,1.38
2022-12-07T20:02:58.407Z,1.39
2022-12-07T20:05:25.130Z,1.40
2022-12-07T20:07:51.669Z,1.22
2022-12-07T20:10:22.944Z,1.23
2022-12-07T20:13:11.203Z,1.24
2022-12-07T20:15:38.556Z,1.23
2022-12-07T20:18:05.156Z,1.25
2022-12-07T20:20:31.724Z,1.21
2022-12-07T20:22:58.338Z,1.25
2022-12-07T20:25:24.860Z,1.32
2022-12-07T20:27:51.575Z,1.30
2022-12-07T20:30:18.188Z,1.31
2022-12-07T20:32:44.779Z,1.33
2022-12-07T20:35:11.347Z,1.19
2022-12-07T20:37:37.908Z,1.26
2022-12-07T20:40:05.401Z,1.20
2022-12-07T20:42:37.844Z,1.20
2022-12-07T20:45:08.450Z,1.24
2022-12-07T20:47:36.653Z,1.25
2022-12-07T20:50:04.748Z,1.29
2022-12-07T20:52:31.348Z,1.19
2022-12-07T20:54:57.889Z,1.20
2022-12-07T20:57:24.442Z,1.17
2022-12-07T20:59:50.967Z,1.22
2022-12-07T21:02:17.558Z,1.11
2022-12-07T21:04:44.234Z,1.07
2022-12-07T21:07:10.824Z,1.15
2022-12-07T21:09:37.496Z,1.19
2022-12-07T21:12:04.689Z,1.16
2022-12-07T21:14:31.309Z,1.06
2022-12-07T21:16:57.886Z,1.12
2022-12-07T21:19:25.086Z,1.06
2022-12-07T21:21:52.165Z,1.06
2022-12-07T21:24:18.727Z,1.08
2022-12-07T21:26:45.295Z,1.07
2022-12-07T21:29:11.870Z,1.05
2022-12-07T21:31:38.487Z,1.07
2022-12-07T21:34:05.702Z,1.05
2022-12-07T21:36:33.335Z,1.01
2022-12-07T21:39:00.199Z,0.97
2022-12-07T21:41:32.469Z,0.93
2022-12-07T21:43:59.571Z,0.95
2022-12-07T21:46:33.171Z,0.96
2022-12-07T21:49:02.705Z,0.98
2022-12-07T21:51:30.390Z,0.94
2022-12-07T21:53:59.250Z,0.88
2022-12-07T21:56:34.738Z,0.93
2022-12-07T21:59:13.020Z,0.95
2022-12-07T22:01:41.196Z,1.02
2022-12-07T22:04:09.650Z,1.04
2022-12-07T22:06:36.963Z,1.09
2022-12-07T22:09:04.983Z,1.10
2022-12-07T22:11:31.530Z,1.08
2022-12-07T22:14:16.612Z,1.04
2022-12-07T22:16:43.211Z,0.99
2022-12-07T22:19:09.996Z,0.96
2022-12-07T22:21:36.576Z,0.93
2022-12-07T22:24:04.532Z,0.95
2022-12-07T22:26:31.889Z,0.97
2022-12-07T22:28:58.528Z,0.94
2022-12-07T22:31:25.328Z,0.95
2022-12-07T22:33:52.629Z,1.05
2022-12-07T22:36:20.032Z,1.08
2022-12-07T22:38:47.039Z,1.07
2022-12-07T22:41:25.687Z,0.98
2022-12-07T22:43:52.874Z,0.99
2022-12-07T22:46:20.292Z,1.06
2022-12-07T22:48:47.502Z,1.00
2022-12-07T22:51:24.551Z,1.01
2022-12-07T22:53:52.163Z,1.08
2022-12-07T22:56:19.253Z,1.04
2022-12-07T22:58:46.714Z,1.05
2022-12-07T23:01:15.423Z,0.98
2022-12-07T23:03:42.508Z,1.01
2022-12-07T23:06:12.695Z,0.99
2022-12-07T23:08:39.298Z,1.00
2022-12-07T23:11:09.926Z,1.03
2022-12-07T23:13:38.113Z,1.06
2022-12-07T23:16:14.184Z,1.04
2022-12-07T23:18:42.106Z,1.11
2022-12-07T23:21:09.733Z,1.13
2022-12-07T23:23:36.677Z,1.17
2022-12-07T23:26:07.749Z,1.16
2022-12-07T23:28:35.293Z,1.12
2022-12-07T23:31:20.885Z,1.17
2022-12-07T23:33:47.978Z,1.09
2022-12-07T23:36:26.439Z,1.10
2022-12-07T23:38:55.035Z,1.15
2022-12-07T23:41:24.154Z,1.13
2022-12-07T23:43:51.632Z,1.10
2022-12-07T23:46:20.565Z,1.02
2022-12-07T23:48:49.175Z,1.03
2022-12-07T23:51:16.920Z,1.07
2022-12-07T23:53:45.856Z,1.01
2022-12-07T23:56:24.742Z,0.97
2022-12-07T23:58:52.103Z,1.00
